sensor_id;sensor_type;location;lat;lon;timestamp;P1;durP1;ratioP1;P2;durP2;ratioP2
3865;SDS011;1948;53.250;10.412;2023-02-15T00:00:27;104.67;;;45.87;;
3865;SDS011;1948;53.250;10.412;2023-02-15T00:02:54;148.90;;;46.83;;
3865;SDS011;1948;53.250;10.412;2023-02-15T00:05:21;214.07;;;45.37;;
3865;SDS011;1948;53.250;10.412;2023-02-15T00:07:47;120.27;;;45.20;;
3865;SDS011;1948;53.250;10.412;2023-02-15T00:10:14;146.70;;;46.10;;
3865;SDS011;1948;53.250;10.412;2023-02-15T00:12:42;105.50;;;43.93;;
3865;SDS011;1948;53.250;10.412;2023-02-15T00:15:11;151.87;;;47.63;;
3865;SDS011;1948;53.250;10.412;2023-02-15T00:17:41;188.00;;;43.37;;
3865;SDS011;1948;53.250;10.412;2023-02-15T00:20:10;109.67;;;43.43;;
3865;SDS011;1948;53.250;10.412;2023-02-15T00:22:42;119.30;;;46.30;;
3865;SDS011;1948;53.250;10.412;2023-02-15T00:25:09;234.57;;;48.33;;
3865;SDS011;1948;53.250;10.412;2023-02-15T00:27:38;123.77;;;43.27;;
3865;SDS011;1948;53.250;10.412;2023-02-15T00:30:05;157.87;;;46.10;;
3865;SDS011;1948;53.250;10.412;2023-02-15T00:32:35;114.30;;;45.90;;
3865;SDS011;1948;53.250;10.412;2023-02-15T00:35:07;128.37;;;43.10;;
3865;SDS011;1948;53.250;10.412;2023-02-15T00:37:35;165.27;;;44.10;;
3865;SDS011;1948;53.250;10.412;2023-02-15T00:40:02;176.23;;;44.90;;
3865;SDS011;1948;53.250;10.412;2023-02-15T00:42:32;146.30;;;41.90;;
3865;SDS011;1948;53.250;10.412;2023-02-15T00:44:59;113.63;;;41.50;;
3865;SDS011;1948;53.250;10.412;2023-02-15T00:47:26;268.83;;;46.63;;
3865;SDS011;1948;53.250;10.412;2023-02-15T00:49:53;287.37;;;45.90;;
3865;SDS011;1948;53.250;10.412;2023-02-15T00:52:20;227.77;;;42.93;;
3865;SDS011;1948;53.250;10.412;2023-02-15T00:54:47;334.37;;;45.37;;
3865;SDS011;1948;53.250;10.412;2023-02-15T00:57:14;211.17;;;40.40;;
3865;SDS011;1948;53.250;10.412;2023-02-15T00:59:40;215.07;;;42.37;;
3865;SDS011;1948;53.250;10.412;2023-02-15T01:02:07;328.33;;;44.13;;
3865;SDS011;1948;53.250;10.412;2023-02-15T01:04:37;132.20;;;39.00;;
3865;SDS011;1948;53.250;10.412;2023-02-15T01:07:04;128.73;;;39.27;;
3865;SDS011;1948;53.250;10.412;2023-02-15T01:09:31;179.23;;;39.60;;
3865;SDS011;1948;53.250;10.412;2023-02-15T01:11:57;231.43;;;41.00;;
3865;SDS011;1948;53.250;10.412;2023-02-15T01:14:29;401.70;;;41.97;;
3865;SDS011;1948;53.250;10.412;2023-02-15T01:17:01;154.37;;;42.20;;
3865;SDS011;1948;53.250;10.412;2023-02-15T01:19:30;164.47;;;37.67;;
3865;SDS011;1948;53.250;10.412;2023-02-15T01:22:01;275.73;;;40.97;;
3865;SDS011;1948;53.250;10.412;2023-02-15T01:24:30;182.47;;;40.00;;
3865;SDS011;1948;53.250;10.412;2023-02-15T01:27:00;263.17;;;40.60;;
3865;SDS011;1948;53.250;10.412;2023-02-15T01:29:27;257.43;;;42.53;;
3865;SDS011;1948;53.250;10.412;2023-02-15T01:31:54;311.77;;;42.47;;
3865;SDS011;1948;53.250;10.412;2023-02-15T01:34:21;268.73;;;41.20;;
3865;SDS011;1948;53.250;10.412;2023-02-15T01:36:48;367.00;;;45.13;;
3865;SDS011;1948;53.250;10.412;2023-02-15T01:39:17;228.73;;;41.07;;
3865;SDS011;1948;53.250;10.412;2023-02-15T01:41:44;332.27;;;44.00;;
3865;SDS011;1948;53.250;10.412;2023-02-15T01:47:10;275.40;;;43.90;;
3865;SDS011;1948;53.250;10.412;2023-02-15T01:49:45;221.23;;;40.60;;
3865;SDS011;1948;53.250;10.412;2023-02-15T01:52:14;119.30;;;41.37;;
3865;SDS011;1948;53.250;10.412;2023-02-15T01:54:45;416.67;;;44.30;;
3865;SDS011;1948;53.250;10.412;2023-02-15T01:57:15;284.53;;;43.77;;
3865;SDS011;1948;53.250;10.412;2023-02-15T01:59:48;214.87;;;41.97;;
3865;SDS011;1948;53.250;10.412;2023-02-15T02:02:20;260.27;;;42.47;;
3865;SDS011;1948;53.250;10.412;2023-02-15T02:04:52;262.57;;;44.03;;
3865;SDS011;1948;53.250;10.412;2023-02-15T02:07:41;234.73;;;40.40;;
3865;SDS011;1948;53.250;10.412;2023-02-15T02:10:15;283.23;;;42.57;;
3865;SDS011;1948;53.250;10.412;2023-02-15T02:12:47;295.93;;;41.50;;
3865;SDS011;1948;53.250;10.412;2023-02-15T02:15:20;95.87;;;37.30;;
3865;SDS011;1948;53.250;10.412;2023-02-15T02:44:51;118.03;;;37.27;;
3865;SDS011;1948;53.250;10.412;2023-02-15T02:47:48;130.83;;;38.50;;
3865;SDS011;1948;53.250;10.412;2023-02-15T02:50:21;117.30;;;35.23;;
3865;SDS011;1948;53.250;10.412;2023-02-15T02:52:57;86.77;;;38.03;;
3865;SDS011;1948;53.250;10.412;2023-02-15T03:03:43;168.00;;;36.70;;
3865;SDS011;1948;53.250;10.412;2023-02-15T03:06:22;194.13;;;36.03;;
3865;SDS011;1948;53.250;10.412;2023-02-15T03:09:10;189.87;;;34.10;;
3865;SDS011;1948;53.250;10.412;2023-02-15T03:12:12;171.53;;;34.67;;
3865;SDS011;1948;53.250;10.412;2023-02-15T03:14:47;114.73;;;34.37;;
3865;SDS011;1948;53.250;10.412;2023-02-15T03:17:21;251.00;;;34.70;;
3865;SDS011;1948;53.250;10.412;2023-02-15T03:19:54;144.03;;;36.50;;
3865;SDS011;1948;53.250;10.412;2023-02-15T03:22:38;139.03;;;36.93;;
3865;SDS011;1948;53.250;10.412;2023-02-15T03:25:20;167.47;;;36.17;;
3865;SDS011;1948;53.250;10.412;2023-02-15T03:27:54;347.47;;;35.97;;
3865;SDS011;1948;53.250;10.412;2023-02-15T03:30:27;468.13;;;41.73;;
3865;SDS011;1948;53.250;10.412;2023-02-15T03:32:59;290.07;;;39.30;;
3865;SDS011;1948;53.250;10.412;2023-02-15T03:35:39;330.13;;;40.20;;
3865;SDS011;1948;53.250;10.412;2023-02-15T03:38:28;225.13;;;38.50;;
3865;SDS011;1948;53.250;10.412;2023-02-15T03:41:06;243.10;;;39.63;;
3865;SDS011;1948;53.250;10.412;2023-02-15T03:43:52;126.60;;;37.60;;
3865;SDS011;1948;53.250;10.412;2023-02-15T03:49:38;167.17;;;34.73;;
3865;SDS011;1948;53.250;10.412;2023-02-15T03:52:18;189.33;;;31.93;;
3865;SDS011;1948;53.250;10.412;2023-02-15T03:54:49;136.57;;;34.20;;
3865;SDS011;1948;53.250;10.412;2023-02-15T03:57:19;206.33;;;34.30;;
3865;SDS011;1948;53.250;10.412;2023-02-15T04:00:18;217.83;;;34.90;;
3865;SDS011;1948;53.250;10.412;2023-02-15T04:05:42;223.53;;;33.30;;
3865;SDS011;1948;53.250;10.412;2023-02-15T04:08:10;267.80;;;37.60;;
3865;SDS011;1948;53.250;10.412;2023-02-15T04:10:38;162.67;;;34.53;;
3865;SDS011;1948;53.250;10.412;2023-02-15T04:13:23;87.20;;;30.27;;
3865;SDS011;1948;53.250;10.412;2023-02-15T04:15:56;255.00;;;33.40;;
3865;SDS011;1948;53.250;10.412;2023-02-15T04:18:37;180.60;;;30.40;;
3865;SDS011;1948;53.250;10.412;2023-02-15T04:21:26;149.53;;;30.57;;
3865;SDS011;1948;53.250;10.412;2023-02-15T04:24:18;248.30;;;28.80;;
3865;SDS011;1948;53.250;10.412;2023-02-15T04:27:04;276.77;;;30.07;;
3865;SDS011;1948;53.250;10.412;2023-02-15T04:29:36;396.70;;;35.50;;
3865;SDS011;1948;53.250;10.412;2023-02-15T04:32:03;257.60;;;32.77;;
3865;SDS011;1948;53.250;10.412;2023-02-15T04:34:30;149.53;;;30.00;;
3865;SDS011;1948;53.250;10.412;2023-02-15T04:36:57;314.73;;;31.40;;
3865;SDS011;1948;53.250;10.412;2023-02-15T04:39:24;246.27;;;29.67;;
3865;SDS011;1948;53.250;10.412;2023-02-15T04:41:56;122.27;;;29.00;;
3865;SDS011;1948;53.250;10.412;2023-02-15T04:44:23;169.33;;;26.93;;
3865;SDS011;1948;53.250;10.412;2023-02-15T04:46:50;126.70;;;26.80;;
3865;SDS011;1948;53.250;10.412;2023-02-15T04:49:17;151.00;;;25.47;;
3865;SDS011;1948;53.250;10.412;2023-02-15T04:51:49;182.80;;;27.23;;
3865;SDS011;1948;53.250;10.412;2023-02-15T04:54:16;132.23;;;26.47;;
3865;SDS011;1948;53.250;10.412;2023-02-15T04:56:46;84.87;;;25.13;;
3865;SDS011;1948;53.250;10.412;2023-02-15T04:59:13;167.40;;;25.00;;
3865;SDS011;1948;53.250;10.412;2023-02-15T05:01:44;93.73;;;25.13;;
3865;SDS011;1948;53.250;10.412;2023-02-15T05:04:19;117.73;;;25.17;;
3865;SDS011;1948;53.250;10.412;2023-02-15T05:06:46;91.17;;;23.27;;
3865;SDS011;1948;53.250;10.412;2023-02-15T05:09:15;97.50;;;25.60;;
3865;SDS011;1948;53.250;10.412;2023-02-15T05:11:42;97.07;;;26.57;;
3865;SDS011;1948;53.250;10.412;2023-02-15T05:14:12;217.07;;;27.27;;
3865;SDS011;1948;53.250;10.412;2023-02-15T05:16:42;45.80;;;25.60;;
3865;SDS011;1948;53.250;10.412;2023-02-15T05:19:09;46.40;;;24.60;;
3865;SDS011;1948;53.250;10.412;2023-02-15T05:21:36;145.77;;;27.03;;
3865;SDS011;1948;53.250;10.412;2023-02-15T05:24:06;58.87;;;24.93;;
3865;SDS011;1948;53.250;10.412;2023-02-15T05:27:01;326.13;;;29.13;;
3865;SDS011;1948;53.250;10.412;2023-02-15T05:29:47;235.30;;;27.70;;
3865;SDS011;1948;53.250;10.412;2023-02-15T05:32:14;317.00;;;30.13;;
3865;SDS011;1948;53.250;10.412;2023-02-15T05:34:44;292.57;;;29.43;;
3865;SDS011;1948;53.250;10.412;2023-02-15T05:37:10;336.77;;;30.80;;
3865;SDS011;1948;53.250;10.412;2023-02-15T05:39:37;214.60;;;27.47;;
3865;SDS011;1948;53.250;10.412;2023-02-15T05:42:04;219.30;;;26.60;;
3865;SDS011;1948;53.250;10.412;2023-02-15T05:44:32;359.80;;;30.60;;
3865;SDS011;1948;53.250;10.412;2023-02-15T05:47:01;266.70;;;29.13;;
3865;SDS011;1948;53.250;10.412;2023-02-15T05:49:31;155.20;;;27.73;;
3865;SDS011;1948;53.250;10.412;2023-02-15T05:51:58;365.03;;;30.97;;
3865;SDS011;1948;53.250;10.412;2023-02-15T05:54:29;233.90;;;28.80;;
3865;SDS011;1948;53.250;10.412;2023-02-15T05:56:55;173.20;;;28.00;;
3865;SDS011;1948;53.250;10.412;2023-02-15T05:59:23;276.57;;;29.27;;
3865;SDS011;1948;53.250;10.412;2023-02-15T06:01:49;291.13;;;30.33;;
3865;SDS011;1948;53.250;10.412;2023-02-15T06:04:16;249.77;;;30.27;;
3865;SDS011;1948;53.250;10.412;2023-02-15T06:06:46;406.83;;;34.40;;
3865;SDS011;1948;53.250;10.412;2023-02-15T06:09:13;220.43;;;28.80;;
3865;SDS011;1948;53.250;10.412;2023-02-15T06:11:40;310.00;;;31.43;;
3865;SDS011;1948;53.250;10.412;2023-02-15T06:14:07;90.87;;;26.80;;
3865;SDS011;1948;53.250;10.412;2023-02-15T06:16:36;244.63;;;29.63;;
3865;SDS011;1948;53.250;10.412;2023-02-15T06:19:10;100.50;;;27.33;;
3865;SDS011;1948;53.250;10.412;2023-02-15T06:21:39;251.50;;;30.20;;
3865;SDS011;1948;53.250;10.412;2023-02-15T06:24:09;186.00;;;33.00;;
3865;SDS011;1948;53.250;10.412;2023-02-15T06:26:36;237.20;;;28.57;;
3865;SDS011;1948;53.250;10.412;2023-02-15T06:29:03;176.60;;;29.77;;
3865;SDS011;1948;53.250;10.412;2023-02-15T06:31:32;301.63;;;30.23;;
3865;SDS011;1948;53.250;10.412;2023-02-15T06:33:59;314.27;;;31.67;;
3865;SDS011;1948;53.250;10.412;2023-02-15T06:36:31;154.70;;;28.70;;
3865;SDS011;1948;53.250;10.412;2023-02-15T06:39:01;246.43;;;33.70;;
3865;SDS011;1948;53.250;10.412;2023-02-15T06:41:29;228.73;;;29.53;;
3865;SDS011;1948;53.250;10.412;2023-02-15T06:43:58;367.97;;;33.67;;
3865;SDS011;1948;53.250;10.412;2023-02-15T06:46:25;388.90;;;30.97;;
3865;SDS011;1948;53.250;10.412;2023-02-15T06:48:52;217.73;;;30.57;;
3865;SDS011;1948;53.250;10.412;2023-02-15T06:51:19;252.80;;;30.17;;
3865;SDS011;1948;53.250;10.412;2023-02-15T06:53:48;346.47;;;33.70;;
3865;SDS011;1948;53.250;10.412;2023-02-15T06:56:15;262.07;;;29.30;;
3865;SDS011;1948;53.250;10.412;2023-02-15T06:58:44;386.27;;;32.93;;
3865;SDS011;1948;53.250;10.412;2023-02-15T07:01:14;178.03;;;28.67;;
3865;SDS011;1948;53.250;10.412;2023-02-15T07:03:42;148.20;;;27.33;;
3865;SDS011;1948;53.250;10.412;2023-02-15T07:06:08;150.93;;;26.93;;
3865;SDS011;1948;53.250;10.412;2023-02-15T07:08:43;240.50;;;32.93;;
3865;SDS011;1948;53.250;10.412;2023-02-15T07:11:10;88.53;;;29.60;;
3865;SDS011;1948;53.250;10.412;2023-02-15T07:13:55;164.50;;;29.00;;
3865;SDS011;1948;53.250;10.412;2023-02-15T07:16:22;243.27;;;28.83;;
3865;SDS011;1948;53.250;10.412;2023-02-15T07:18:52;124.33;;;27.97;;
3865;SDS011;1948;53.250;10.412;2023-02-15T07:21:18;55.07;;;26.47;;
3865;SDS011;1948;53.250;10.412;2023-02-15T07:23:45;95.87;;;25.97;;
3865;SDS011;1948;53.250;10.412;2023-02-15T07:26:12;137.80;;;27.13;;
3865;SDS011;1948;53.250;10.412;2023-02-15T07:28:41;255.17;;;28.40;;
3865;SDS011;1948;53.250;10.412;2023-02-15T07:31:08;130.37;;;26.53;;
3865;SDS011;1948;53.250;10.412;2023-02-15T07:33:38;252.53;;;28.17;;
3865;SDS011;1948;53.250;10.412;2023-02-15T07:36:07;86.50;;;25.80;;
3865;SDS011;1948;53.250;10.412;2023-02-15T07:38:39;146.33;;;26.73;;
3865;SDS011;1948;53.250;10.412;2023-02-15T07:41:08;91.00;;;25.03;;
3865;SDS011;1948;53.250;10.412;2023-02-15T07:43:38;146.83;;;26.60;;
3865;SDS011;1948;53.250;10.412;2023-02-15T07:46:08;104.07;;;25.37;;
3865;SDS011;1948;53.250;10.412;2023-02-15T07:48:38;88.13;;;26.27;;
3865;SDS011;1948;53.250;10.412;2023-02-15T07:51:08;194.07;;;28.07;;
3865;SDS011;1948;53.250;10.412;2023-02-15T07:53:37;214.50;;;27.33;;
3865;SDS011;1948;53.250;10.412;2023-02-15T07:56:06;142.93;;;26.30;;
3865;SDS011;1948;53.250;10.412;2023-02-15T07:58:37;167.33;;;27.40;;
3865;SDS011;1948;53.250;10.412;2023-02-15T08:01:23;85.67;;;24.30;;
3865;SDS011;1948;53.250;10.412;2023-02-15T08:03:56;50.03;;;22.60;;
3865;SDS011;1948;53.250;10.412;2023-02-15T08:06:26;147.80;;;26.30;;
3865;SDS011;1948;53.250;10.412;2023-02-15T08:08:56;193.10;;;27.40;;
3865;SDS011;1948;53.250;10.412;2023-02-15T08:11:24;114.10;;;24.63;;
3865;SDS011;1948;53.250;10.412;2023-02-15T08:14:00;91.53;;;24.63;;
3865;SDS011;1948;53.250;10.412;2023-02-15T08:16:51;75.97;;;22.93;;
3865;SDS011;1948;53.250;10.412;2023-02-15T08:19:26;170.00;;;27.33;;
3865;SDS011;1948;53.250;10.412;2023-02-15T08:22:06;147.80;;;26.83;;
3865;SDS011;1948;53.250;10.412;2023-02-15T08:24:38;95.00;;;23.90;;
3865;SDS011;1948;53.250;10.412;2023-02-15T08:27:09;154.07;;;23.30;;
3865;SDS011;1948;53.250;10.412;2023-02-15T08:29:39;118.63;;;23.73;;
3865;SDS011;1948;53.250;10.412;2023-02-15T08:32:09;49.60;;;24.20;;
3865;SDS011;1948;53.250;10.412;2023-02-15T08:34:39;42.77;;;22.70;;
3865;SDS011;1948;53.250;10.412;2023-02-15T08:37:10;52.23;;;24.17;;
3865;SDS011;1948;53.250;10.412;2023-02-15T08:39:39;45.47;;;23.30;;
3865;SDS011;1948;53.250;10.412;2023-02-15T08:42:08;58.13;;;22.93;;
3865;SDS011;1948;53.250;10.412;2023-02-15T08:44:35;65.10;;;22.90;;
3865;SDS011;1948;53.250;10.412;2023-02-15T08:47:02;107.90;;;24.23;;
3865;SDS011;1948;53.250;10.412;2023-02-15T08:49:32;70.00;;;23.30;;
3865;SDS011;1948;53.250;10.412;2023-02-15T08:51:59;45.73;;;21.83;;
3865;SDS011;1948;53.250;10.412;2023-02-15T08:54:30;47.70;;;23.03;;
3865;SDS011;1948;53.250;10.412;2023-02-15T08:56:57;37.07;;;23.80;;
3865;SDS011;1948;53.250;10.412;2023-02-15T08:59:26;63.67;;;22.23;;
3865;SDS011;1948;53.250;10.412;2023-02-15T09:01:53;59.40;;;22.43;;
3865;SDS011;1948;53.250;10.412;2023-02-15T09:04:21;47.33;;;22.47;;
3865;SDS011;1948;53.250;10.412;2023-02-15T09:06:51;52.23;;;21.97;;
3865;SDS011;1948;53.250;10.412;2023-02-15T09:09:18;71.57;;;22.00;;
3865;SDS011;1948;53.250;10.412;2023-02-15T09:11:46;31.70;;;19.17;;
3865;SDS011;1948;53.250;10.412;2023-02-15T09:14:22;33.23;;;19.83;;
3865;SDS011;1948;53.250;10.412;2023-02-15T09:16:51;36.47;;;21.83;;
3865;SDS011;1948;53.250;10.412;2023-02-15T09:19:22;62.93;;;21.13;;
3865;SDS011;1948;53.250;10.412;2023-02-15T09:21:49;52.13;;;20.90;;
3865;SDS011;1948;53.250;10.412;2023-02-15T09:24:18;32.13;;;21.10;;
3865;SDS011;1948;53.250;10.412;2023-02-15T09:26:46;39.27;;;23.33;;
3865;SDS011;1948;53.250;10.412;2023-02-15T09:29:20;32.83;;;20.60;;
3865;SDS011;1948;53.250;10.412;2023-02-15T09:31:51;34.17;;;20.13;;
3865;SDS011;1948;53.250;10.412;2023-02-15T09:34:22;33.17;;;20.70;;
3865;SDS011;1948;53.250;10.412;2023-02-15T09:36:51;29.70;;;19.87;;
3865;SDS011;1948;53.250;10.412;2023-02-15T09:39:19;35.30;;;20.63;;
3865;SDS011;1948;53.250;10.412;2023-02-15T09:47:53;33.10;;;20.33;;
3865;SDS011;1948;53.250;10.412;2023-02-15T09:51:18;30.67;;;18.70;;
3865;SDS011;1948;53.250;10.412;2023-02-15T09:57:30;33.43;;;20.50;;
3865;SDS011;1948;53.250;10.412;2023-02-15T10:00:13;30.53;;;19.47;;
3865;SDS011;1948;53.250;10.412;2023-02-15T10:06:23;33.27;;;20.70;;
3865;SDS011;1948;53.250;10.412;2023-02-15T10:31:25;32.07;;;21.03;;
3865;SDS011;1948;53.250;10.412;2023-02-15T10:34:14;27.40;;;19.53;;
3865;SDS011;1948;53.250;10.412;2023-02-15T10:51:20;29.80;;;19.93;;
3865;SDS011;1948;53.250;10.412;2023-02-15T10:54:32;31.07;;;19.83;;
3865;SDS011;1948;53.250;10.412;2023-02-15T10:57:33;30.27;;;20.97;;
3865;SDS011;1948;53.250;10.412;2023-02-15T11:00:34;27.57;;;20.17;;
3865;SDS011;1948;53.250;10.412;2023-02-15T11:06:09;29.30;;;19.80;;
3865;SDS011;1948;53.250;10.412;2023-02-15T11:08:43;27.60;;;18.50;;
3865;SDS011;1948;53.250;10.412;2023-02-15T11:11:28;28.57;;;20.23;;
3865;SDS011;1948;53.250;10.412;2023-02-15T11:14:02;27.40;;;20.20;;
3865;SDS011;1948;53.250;10.412;2023-02-15T11:16:43;26.77;;;18.90;;
3865;SDS011;1948;53.250;10.412;2023-02-15T11:19:31;24.40;;;18.13;;
3865;SDS011;1948;53.250;10.412;2023-02-15T11:22:25;28.00;;;18.80;;
3865;SDS011;1948;53.250;10.412;2023-02-15T11:24:54;25.17;;;18.50;;
3865;SDS011;1948;53.250;10.412;2023-02-15T11:27:27;24.07;;;18.57;;
3865;SDS011;1948;53.250;10.412;2023-02-15T11:30:02;23.63;;;18.50;;
3865;SDS011;1948;53.250;10.412;2023-02-15T11:32:47;22.23;;;18.80;;
3865;SDS011;1948;53.250;10.412;2023-02-15T11:35:32;26.60;;;17.50;;
3865;SDS011;1948;53.250;10.412;2023-02-15T11:38:12;22.37;;;19.10;;
3865;SDS011;1948;53.250;10.412;2023-02-15T11:46:11;19.80;;;17.70;;
3865;SDS011;1948;53.250;10.412;2023-02-15T11:48:39;23.93;;;17.23;;
3865;SDS011;1948;53.250;10.412;2023-02-15T11:51:14;24.73;;;17.73;;
3865;SDS011;1948;53.250;10.412;2023-02-15T11:53:44;21.87;;;18.87;;
3865;SDS011;1948;53.250;10.412;2023-02-15T11:56:16;20.37;;;17.70;;
3865;SDS011;1948;53.250;10.412;2023-02-15T12:01:30;18.70;;;16.20;;
3865;SDS011;1948;53.250;10.412;2023-02-15T12:04:17;24.63;;;17.90;;
3865;SDS011;1948;53.250;10.412;2023-02-15T12:06:59;20.00;;;17.90;;
3865;SDS011;1948;53.250;10.412;2023-02-15T12:09:52;18.60;;;16.70;;
3865;SDS011;1948;53.250;10.412;2023-02-15T12:12:46;24.13;;;17.10;;
3865;SDS011;1948;53.250;10.412;2023-02-15T12:15:13;19.77;;;17.80;;
3865;SDS011;1948;53.250;10.412;2023-02-15T12:17:50;18.93;;;16.60;;
3865;SDS011;1948;53.250;10.412;2023-02-15T12:22:49;19.53;;;17.53;;
3865;SDS011;1948;53.250;10.412;2023-02-15T12:28:04;18.43;;;16.53;;
3865;SDS011;1948;53.250;10.412;2023-02-15T12:30:52;17.57;;;15.87;;
3865;SDS011;1948;53.250;10.412;2023-02-15T12:35:59;18.70;;;16.73;;
3865;SDS011;1948;53.250;10.412;2023-02-15T12:39:04;18.33;;;16.60;;
3865;SDS011;1948;53.250;10.412;2023-02-15T12:41:56;19.73;;;17.67;;
3865;SDS011;1948;53.250;10.412;2023-02-15T12:44:54;19.73;;;17.67;;
3865;SDS011;1948;53.250;10.412;2023-02-15T12:47:27;17.67;;;15.90;;
3865;SDS011;1948;53.250;10.412;2023-02-15T12:52:50;20.03;;;17.10;;
3865;SDS011;1948;53.250;10.412;2023-02-15T12:55:28;19.63;;;17.63;;
3865;SDS011;1948;53.250;10.412;2023-02-15T12:58:16;18.77;;;16.97;;
3865;SDS011;1948;53.250;10.412;2023-02-15T13:01:01;16.80;;;15.17;;
3865;SDS011;1948;53.250;10.412;2023-02-15T13:03:29;16.27;;;14.77;;
3865;SDS011;1948;53.250;10.412;2023-02-15T13:05:56;16.97;;;15.27;;
3865;SDS011;1948;53.250;10.412;2023-02-15T13:08:28;17.43;;;15.60;;
3865;SDS011;1948;53.250;10.412;2023-02-15T13:11:03;16.77;;;14.93;;
3865;SDS011;1948;53.250;10.412;2023-02-15T13:13:58;17.73;;;14.60;;
3865;SDS011;1948;53.250;10.412;2023-02-15T13:16:33;17.20;;;15.40;;
3865;SDS011;1948;53.250;10.412;2023-02-15T13:19:09;19.40;;;16.60;;
3865;SDS011;1948;53.250;10.412;2023-02-15T13:21:48;18.33;;;16.47;;
3865;SDS011;1948;53.250;10.412;2023-02-15T13:26:58;18.57;;;16.50;;
3865;SDS011;1948;53.250;10.412;2023-02-15T13:29:42;20.70;;;17.17;;
3865;SDS011;1948;53.250;10.412;2023-02-15T13:32:33;18.37;;;16.57;;
3865;SDS011;1948;53.250;10.412;2023-02-15T13:35:04;20.40;;;17.20;;
3865;SDS011;1948;53.250;10.412;2023-02-15T14:02:46;19.30;;;17.20;;
3865;SDS011;1948;53.250;10.412;2023-02-15T14:16:26;24.33;;;18.93;;
3865;SDS011;1948;53.250;10.412;2023-02-15T14:19:09;22.57;;;19.23;;
3865;SDS011;1948;53.250;10.412;2023-02-15T14:21:49;19.83;;;17.67;;
3865;SDS011;1948;53.250;10.412;2023-02-15T14:24:42;23.43;;;18.87;;
3865;SDS011;1948;53.250;10.412;2023-02-15T14:30:38;26.30;;;20.27;;
3865;SDS011;1948;53.250;10.412;2023-02-15T14:33:08;24.70;;;20.70;;
3865;SDS011;1948;53.250;10.412;2023-02-15T14:35:47;22.23;;;19.17;;
3865;SDS011;1948;53.250;10.412;2023-02-15T14:38:26;28.87;;;21.23;;
3865;SDS011;1948;53.250;10.412;2023-02-15T14:41:59;25.43;;;20.53;;
3865;SDS011;1948;53.250;10.412;2023-02-15T14:44:42;25.50;;;19.37;;
3865;SDS011;1948;53.250;10.412;2023-02-15T14:47:26;27.23;;;20.57;;
3865;SDS011;1948;53.250;10.412;2023-02-15T15:01:25;26.50;;;21.30;;
3865;SDS011;1948;53.250;10.412;2023-02-15T15:04:06;30.53;;;22.33;;
3865;SDS011;1948;53.250;10.412;2023-02-15T15:06:42;27.90;;;21.93;;
3865;SDS011;1948;53.250;10.412;2023-02-15T15:09:35;30.10;;;23.57;;
3865;SDS011;1948;53.250;10.412;2023-02-15T15:14:52;33.53;;;22.27;;
3865;SDS011;1948;53.250;10.412;2023-02-15T15:23:39;34.47;;;22.70;;
3865;SDS011;1948;53.250;10.412;2023-02-15T15:25:48;31.13;;;23.47;;
3865;SDS011;1948;53.250;10.412;2023-02-15T15:28:52;35.77;;;23.03;;
3865;SDS011;1948;53.250;10.412;2023-02-15T15:46:03;34.50;;;23.80;;
3865;SDS011;1948;53.250;10.412;2023-02-15T15:48:38;39.30;;;25.87;;
3865;SDS011;1948;53.250;10.412;2023-02-15T15:51:11;39.93;;;24.47;;
3865;SDS011;1948;53.250;10.412;2023-02-15T15:54:02;38.50;;;24.47;;
3865;SDS011;1948;53.250;10.412;2023-02-15T15:56:33;38.27;;;24.40;;
3865;SDS011;1948;53.250;10.412;2023-02-15T15:59:03;38.13;;;24.83;;
3865;SDS011;1948;53.250;10.412;2023-02-15T16:01:40;38.27;;;25.50;;
3865;SDS011;1948;53.250;10.412;2023-02-15T16:04:14;42.23;;;24.30;;
3865;SDS011;1948;53.250;10.412;2023-02-15T16:06:51;39.67;;;24.87;;
3865;SDS011;1948;53.250;10.412;2023-02-15T16:09:20;44.80;;;26.93;;
3865;SDS011;1948;53.250;10.412;2023-02-15T16:11:51;40.50;;;26.23;;
3865;SDS011;1948;53.250;10.412;2023-02-15T16:14:32;43.80;;;24.97;;
3865;SDS011;1948;53.250;10.412;2023-02-15T16:17:07;42.43;;;25.67;;
3865;SDS011;1948;53.250;10.412;2023-02-15T16:19:46;39.90;;;24.90;;
3865;SDS011;1948;53.250;10.412;2023-02-15T16:22:20;42.10;;;25.20;;
3865;SDS011;1948;53.250;10.412;2023-02-15T16:27:56;42.57;;;25.40;;
3865;SDS011;1948;53.250;10.412;2023-02-15T16:30:35;41.27;;;26.30;;
3865;SDS011;1948;53.250;10.412;2023-02-15T16:33:12;39.63;;;25.07;;
3865;SDS011;1948;53.250;10.412;2023-02-15T16:35:55;46.77;;;26.73;;
3865;SDS011;1948;53.250;10.412;2023-02-15T16:38:47;46.77;;;28.03;;
3865;SDS011;1948;53.250;10.412;2023-02-15T16:43:59;38.83;;;25.33;;
3865;SDS011;1948;53.250;10.412;2023-02-15T16:46:39;42.50;;;26.33;;
3865;SDS011;1948;53.250;10.412;2023-02-15T16:49:20;44.57;;;26.87;;
3865;SDS011;1948;53.250;10.412;2023-02-15T16:54:28;38.67;;;25.07;;
3865;SDS011;1948;53.250;10.412;2023-02-15T16:56:59;42.90;;;26.03;;
3865;SDS011;1948;53.250;10.412;2023-02-15T17:02:06;45.60;;;28.77;;
3865;SDS011;1948;53.250;10.412;2023-02-15T17:07:38;49.37;;;28.77;;
3865;SDS011;1948;53.250;10.412;2023-02-15T17:10:27;43.13;;;28.00;;
3865;SDS011;1948;53.250;10.412;2023-02-15T17:13:04;92.70;;;35.63;;
3865;SDS011;1948;53.250;10.412;2023-02-15T17:15:41;87.53;;;35.60;;
3865;SDS011;1948;53.250;10.412;2023-02-15T17:18:44;62.70;;;30.83;;
3865;SDS011;1948;53.250;10.412;2023-02-15T17:21:25;49.90;;;29.63;;
3865;SDS011;1948;53.250;10.412;2023-02-15T17:23:59;45.50;;;28.13;;
3865;SDS011;1948;53.250;10.412;2023-02-15T17:26:33;52.67;;;29.50;;
3865;SDS011;1948;53.250;10.412;2023-02-15T17:32:19;49.03;;;29.47;;
3865;SDS011;1948;53.250;10.412;2023-02-15T17:42:53;53.53;;;31.43;;
3865;SDS011;1948;53.250;10.412;2023-02-15T17:45:31;53.17;;;31.40;;
3865;SDS011;1948;53.250;10.412;2023-02-15T17:48:09;52.53;;;30.50;;
3865;SDS011;1948;53.250;10.412;2023-02-15T17:51:01;50.03;;;30.50;;
3865;SDS011;1948;53.250;10.412;2023-02-15T17:53:32;47.67;;;28.40;;
3865;SDS011;1948;53.250;10.412;2023-02-15T17:55:59;45.00;;;27.23;;
3865;SDS011;1948;53.250;10.412;2023-02-15T17:58:36;48.03;;;27.33;;
3865;SDS011;1948;53.250;10.412;2023-02-15T18:01:06;46.07;;;27.53;;
3865;SDS011;1948;53.250;10.412;2023-02-15T18:04:02;49.73;;;28.23;;
3865;SDS011;1948;53.250;10.412;2023-02-15T18:06:49;48.27;;;26.47;;
3865;SDS011;1948;53.250;10.412;2023-02-15T18:09:37;51.43;;;28.03;;
3865;SDS011;1948;53.250;10.412;2023-02-15T18:12:28;48.17;;;27.87;;
3865;SDS011;1948;53.250;10.412;2023-02-15T18:14:58;49.83;;;28.13;;
3865;SDS011;1948;53.250;10.412;2023-02-15T18:17:27;58.27;;;33.80;;
3865;SDS011;1948;53.250;10.412;2023-02-15T18:20:17;54.23;;;28.93;;
3865;SDS011;1948;53.250;10.412;2023-02-15T18:22:53;59.40;;;30.30;;
3865;SDS011;1948;53.250;10.412;2023-02-15T18:25:21;48.83;;;28.17;;
3865;SDS011;1948;53.250;10.412;2023-02-15T18:27:50;57.20;;;28.80;;
3865;SDS011;1948;53.250;10.412;2023-02-15T18:30:21;53.23;;;28.97;;
3865;SDS011;1948;53.250;10.412;2023-02-15T18:32:54;46.10;;;26.67;;
3865;SDS011;1948;53.250;10.412;2023-02-15T18:35:23;56.63;;;31.30;;
3865;SDS011;1948;53.250;10.412;2023-02-15T18:37:59;46.87;;;27.60;;
3865;SDS011;1948;53.250;10.412;2023-02-15T18:40:29;52.77;;;29.80;;
3865;SDS011;1948;53.250;10.412;2023-02-15T18:42:56;54.20;;;29.40;;
3865;SDS011;1948;53.250;10.412;2023-02-15T18:45:26;53.23;;;28.97;;
3865;SDS011;1948;53.250;10.412;2023-02-15T18:47:58;58.47;;;30.40;;